Time;durP1;ratioP1;P1;durP2;ratioP2;P2;SDS_P1;SDS_P2;PMS_P1;PMS_P2;Temp;Humidity;BMP_temperature;BMP_pressure;BME280_temperature;BME280_humidity;BME280_pressure;Samples;Min_cycle;Max_cycle;Signal;HPM_P1;HPM_P2
2021/11/30 00:01:56;;;;;;;;;;;;;;;27.74;71.42;100842.41;5075678;27;69785;-34
2021/11/30 00:04:29;;;;;;;;;;;;;;;27.78;72.70;100843.69;5076867;27;65424;-34
2021/11/30 00:07:00;;;;;;;;;;;;;;;27.81;73.16;100843.31;5073789;27;70984;-34
2021/11/30 00:12:09;;;;;;;;;;;;;;;27.85;73.64;100850.78;5074037;27;70099;-34
2021/11/30 00:14:40;;;;;;;;;;;;;;;27.87;74.01;100855.16;5076793;27;67082;-35
2021/11/30 00:17:10;;;;;;;;;;;;;;;27.90;74.32;100866.38;5066065;27;69385;-34
2021/11/30 00:19:41;;;;;;;;;;;;;;;27.92;73.58;100872.41;5074704;27;65280;-34
2021/11/30 00:22:12;;;;;;;;;;;;;;;27.95;74.19;100872.00;5074812;27;70133;-34
2021/11/30 00:24:42;;;;;;;;;;;;;;;27.97;74.37;100872.63;5073760;27;65755;-34
2021/11/30 00:27:15;;;;;;;;;;;;;;;28.01;74.14;100879.28;5074443;27;69470;-34
2021/11/30 00:29:44;;;;;;;;;;;;;;;28.01;74.39;100895.44;5073141;27;65749;-35
2021/11/30 00:32:15;;;;;;;;;;;;;;;28.03;74.13;100890.69;5075385;27;69220;-35
2021/11/30 00:34:44;;;;;;;;;;;;;;;28.07;74.60;100901.91;5076817;27;66068;-35
2021/11/30 00:37:15;;;;;;;;;;;;;;;28.12;73.16;100906.72;5069723;27;70158;-35
2021/11/30 00:39:45;;;;;;;;;;;;;;;28.16;71.95;100905.25;5076379;27;66509;-34
2021/11/30 00:42:15;;;;;;;;;;;;;;;28.21;71.01;100902.78;5077045;27;69759;-34
2021/11/30 00:44:45;;;;;;;;;;;;;;;28.26;70.72;100917.34;5079328;27;65576;-35
2021/11/30 00:47:28;;;;;;;;;;;;;;;28.31;70.27;100907.81;5079699;27;69612;-34
2021/11/30 00:50:14;;;;;;;;;;;;;;;28.35;69.63;100915.28;5077105;27;66650;-35
2021/11/30 00:52:47;;;;;;;;;;;;;;;28.37;69.74;100918.63;5044885;28;69791;-35
2021/11/30 00:55:22;;;;;;;;;;;;;;;28.41;69.47;100924.44;5074747;27;66203;-34
2021/11/30 00:57:53;;;;;;;;;;;;;;;28.44;68.92;100924.88;5075392;27;70448;-34
2021/11/30 01:00:36;;;;;;;;;;;;;;;28.47;68.90;100934.44;5073852;27;66909;-35
2021/11/30 01:03:20;;;;;;;;;;;;;;;28.50;68.67;100932.19;5068813;27;68893;-35
2021/11/30 01:05:54;;;;;;;;;;;;;;;28.51;68.23;100931.16;5073865;27;65653;-35
2021/11/30 01:08:32;;;;;;;;;;;;;;;28.56;68.24;100937.81;5073716;27;69717;-34
2021/11/30 01:11:11;;;;;;;;;;;;;;;28.54;68.01;100939.88;5075127;27;66401;-34
2021/11/30 01:13:45;;;;;;;;;;;;;;;28.60;68.22;100944.47;5074772;27;69717;-34
2021/11/30 01:16:16;;;;;;;;;;;;;;;28.62;68.04;100947.81;5075142;27;66705;-35
2021/11/30 01:18:50;;;;;;;;;;;;;;;28.64;67.95;100956.50;5074367;27;70610;-36
2021/11/30 01:21:25;;;;;;;;;;;;;;;28.65;67.76;100952.78;5074088;27;66040;-35
2021/11/30 01:24:00;;;;;;;;;;;;;;;28.67;67.54;100950.72;5074429;27;70186;-34
2021/11/30 01:26:31;;;;;;;;;;;;;;;28.68;67.26;100947.81;5073005;27;66218;-36
2021/11/30 01:29:02;;;;;;;;;;;;;;;28.69;67.03;100937.84;5074995;27;70272;-34
2021/11/30 01:31:32;;;;;;;;;;;;;;;28.72;67.44;100942.81;5075688;27;67584;-35
2021/11/30 01:34:03;;;;;;;;;;;;;;;28.74;67.04;100946.16;5073505;27;70091;-34
2021/11/30 01:36:33;;;;;;;;;;;;;;;28.76;66.98;100938.69;5073170;27;65912;-33
2021/11/30 01:39:05;;;;;;;;;;;;;;;28.77;66.91;100945.75;5075615;27;69986;-34
2021/11/30 01:41:38;;;;;;;;;;;;;;;28.79;67.18;100954.47;5073328;27;65340;-35
2021/11/30 01:44:22;;;;;;;;;;;;;;;28.80;66.82;100953.44;5073546;27;70572;-35
2021/11/30 01:47:06;;;;;;;;;;;;;;;28.82;66.74;100954.06;5074466;27;67128;-34
2021/11/30 01:49:36;;;;;;;;;;;;;;;28.84;66.82;100946.59;5074287;27;69307;-35
2021/11/30 01:52:08;;;;;;;;;;;;;;;28.86;66.60;100946.38;5075230;27;65429;-35
2021/11/30 01:54:39;;;;;;;;;;;;;;;28.88;66.79;100947.84;5075604;27;69212;-35
2021/11/30 01:57:11;;;;;;;;;;;;;;;28.90;66.50;100951.19;5072150;27;66503;-35
2021/11/30 01:59:42;;;;;;;;;;;;;;;28.92;66.89;100946.41;5075178;27;69570;-35
2021/11/30 02:02:12;;;;;;;;;;;;;;;28.94;66.34;100952.41;5074008;27;67110;-35
2021/11/30 02:04:42;;;;;;;;;;;;;;;28.96;66.68;100961.16;5074680;27;69564;-36
2021/11/30 02:07:13;;;;;;;;;;;;;;;28.99;66.22;100959.09;5074244;27;66978;-35
2021/11/30 02:09:45;;;;;;;;;;;;;;;28.94;66.59;100952.41;5075163;27;70319;-35
2021/11/30 02:12:15;;;;;;;;;;;;;;;29.03;66.14;100957.63;5074365;27;66269;-35
2021/11/30 02:14:46;;;;;;;;;;;;;;;29.05;66.41;100964.50;5075317;27;70100;-34
2021/11/30 02:17:17;;;;;;;;;;;;;;;29.07;66.20;100972.44;5073471;27;65835;-35
2021/11/30 02:19:55;;;;;;;;;;;;;;;29.09;66.46;100964.97;5059642;27;70412;-35
2021/11/30 02:22:26;;;;;;;;;;;;;;;29.11;66.46;100963.72;5074910;27;66602;-35
2021/11/30 02:24:57;;;;;;;;;;;;;;;29.13;66.08;100968.91;5074133;27;70512;-35
2021/11/30 02:27:26;;;;;;;;;;;;;;;29.14;66.04;100975.94;5071567;27;65535;-35
2021/11/30 02:29:56;;;;;;;;;;;;;;;29.16;66.29;100976.59;5071687;27;70078;-36
2021/11/30 02:32:26;;;;;;;;;;;;;;;29.18;65.75;100978.03;5072976;27;66928;-35
2021/11/30 02:34:56;;;;;;;;;;;;;;;29.19;65.84;100978.88;5073958;27;69843;-35
2021/11/30 02:37:29;;;;;;;;;;;;;;;29.23;66.21;100971.19;5073588;27;67035;-34
2021/11/30 02:40:03;;;;;;;;;;;;;;;29.24;65.93;100970.97;5074267;27;70790;-34
2021/11/30 02:42:33;;;;;;;;;;;;;;;29.27;66.02;100967.84;5074064;27;66218;-35
2021/11/30 02:45:03;;;;;;;;;;;;;;;29.27;66.01;100959.75;5073970;27;69184;-36
2021/11/30 02:47:33;;;;;;;;;;;;;;;29.29;65.94;100957.69;5073187;27;65752;-33
2021/11/30 02:50:03;;;;;;;;;;;;;;;29.31;65.92;100958.31;5078263;27;70265;-34
2021/11/30 02:52:35;;;;;;;;;;;;;;;29.33;65.65;100950.81;5077502;27;67036;-35
2021/11/30 02:55:05;;;;;;;;;;;;;;;29.35;65.33;100954.16;5079439;27;70353;-35
2021/11/30 02:57:35;;;;;;;;;;;;;;;29.36;65.21;100953.13;5078472;27;66831;-36
2021/11/30 03:00:06;;;;;;;;;;;;;;;29.39;65.73;100959.94;5077727;27;70226;-35
2021/11/30 03:02:37;;;;;;;;;;;;;;;29.40;65.67;100959.75;5077569;27;66553;-35
2021/11/30 03:05:08;;;;;;;;;;;;;;;29.44;65.09;100962.03;5079133;27;69983;-36
2021/11/30 03:07:39;;;;;;;;;;;;;;;29.46;65.07;100954.56;5075381;27;65594;-36
2021/11/30 03:10:11;;;;;;;;;;;;;;;29.48;65.43;100952.50;5077895;27;69998;-35
2021/11/30 03:12:41;;;;;;;;;;;;;;;29.50;64.97;100950.38;5078865;27;66266;-36
2021/11/30 03:15:15;;;;;;;;;;;;;;;29.51;64.90;100946.66;5075527;27;70258;-35
2021/11/30 03:17:46;;;;;;;;;;;;;;;29.54;65.29;100957.06;5078294;27;66375;-35
2021/11/30 03:20:17;;;;;;;;;;;;;;;29.56;65.23;100949.53;5078693;27;69060;-35
2021/11/30 03:22:47;;;;;;;;;;;;;;;29.58;65.27;100956.41;5077057;27;67019;-35
2021/11/30 03:25:17;;;;;;;;;;;;;;;29.60;64.71;100962.44;5079608;27;69745;-35
2021/11/30 03:27:49;;;;;;;;;;;;;;;29.61;64.77;100968.66;5078747;27;66175;-35
2021/11/30 03:30:23;;;;;;;;;;;;;;;29.63;64.63;100963.94;5078089;27;70159;-35
2021/11/30 03:35:41;;;;;;;;;;;;;;;29.61;64.75;100952.44;5078731;27;69970;-35
2021/11/30 03:38:11;;;;;;;;;;;;;;;29.67;64.67;100962.47;5077731;27;66600;-36
2021/11/30 03:40:41;;;;;;;;;;;;;;;29.69;64.36;100963.09;5077632;27;70266;-36
2021/11/30 03:43:11;;;;;;;;;;;;;;;29.72;64.63;100965.38;5077359;27;65682;-35
2021/11/30 03:45:41;;;;;;;;;;;;;;;29.68;64.24;100947.91;5078451;27;69339;-35
2021/11/30 03:48:11;;;;;;;;;;;;;;;29.74;64.58;100952.47;5076256;27;66376;-35
2021/11/30 03:50:41;;;;;;;;;;;;;;;29.77;64.26;100952.03;5076802;27;69226;-35
2021/11/30 03:53:11;;;;;;;;;;;;;;;29.79;64.65;100944.56;5075970;27;66015;-35
2021/11/30 03:55:41;;;;;;;;;;;;;;;29.80;64.16;100940.81;5077823;27;69318;-35
2021/11/30 03:58:11;;;;;;;;;;;;;;;29.83;64.08;100939.56;5077606;27;65533;-34
2021/11/30 04:00:41;;;;;;;;;;;;;;;29.83;64.55;100934.97;5076914;27;70304;-35
2021/11/30 04:03:12;;;;;;;;;;;;;;;29.87;64.60;100927.28;5075910;27;66191;-34
2021/11/30 04:05:42;;;;;;;;;;;;;;;29.88;64.49;100922.72;5078299;27;70728;-35
2021/11/30 04:08:12;;;;;;;;;;;;;;;29.89;64.10;100916.25;5078194;27;66215;-35
2021/11/30 04:10:42;;;;;;;;;;;;;;;29.78;64.13;100899.66;5056212;27;68884;-35
2021/11/30 04:13:12;;;;;;;;;;;;;;;29.92;63.92;100926.63;5076732;28;66847;-35
2021/11/30 04:15:42;;;;;;;;;;;;;;;29.90;64.50;100916.03;5076653;27;69591;-35
2021/11/30 04:18:13;;;;;;;;;;;;;;;29.94;64.09;100925.38;5074748;27;66623;-35
2021/11/30 04:20:43;;;;;;;;;;;;;;;29.89;63.92;100916.25;5076455;27;70371;-35
2021/11/30 04:23:13;;;;;;;;;;;;;;;29.97;64.01;100924.94;5077734;28;65741;-35
2021/11/30 04:25:42;;;;;;;;;;;;;;;29.99;64.04;100927.44;5074198;27;69744;-37
2021/11/30 04:28:13;;;;;;;;;;;;;;;30.01;63.88;100930.78;5076347;27;66279;-35
2021/11/30 04:30:43;;;;;;;;;;;;;;;30.02;63.86;100921.63;5075642;27;70513;-35
2021/11/30 04:33:12;;;;;;;;;;;;;;;30.04;64.33;100924.94;5074432;27;66441;-35
2021/11/30 04:35:42;;;;;;;;;;;;;;;30.05;64.49;100926.59;5075830;27;70191;-35
2021/11/30 04:38:12;;;;;;;;;;;;;;;30.05;64.18;100918.47;5075161;27;66390;-35
2021/11/30 04:40:42;;;;;;;;;;;;;;;30.05;64.50;100922.00;5073817;27;70053;-35
2021/11/30 04:43:13;;;;;;;;;;;;;;;30.05;64.65;100922.00;5076577;27;66315;-35
2021/11/30 04:45:53;;;;;;;;;;;;;;;30.06;64.62;100917.41;5075570;27;70223;-35
2021/11/30 04:48:24;;;;;;;;;;;;;;;30.05;64.68;100923.88;5074504;27;66728;-34
2021/11/30 04:50:57;;;;;;;;;;;;;;;30.07;64.80;100916.41;5078364;27;70244;-35
2021/11/30 04:53:28;;;;;;;;;;;;;;;30.06;64.29;100912.00;5058884;27;65769;-35
2021/11/30 04:55:59;;;;;;;;;;;;;;;30.05;64.44;100910.34;5076623;27;70921;-36
2021/11/30 04:58:29;;;;;;;;;;;;;;;30.07;64.72;100908.28;5082102;27;66730;-36
2021/11/30 05:01:00;;;;;;;;;;;;;;;30.02;64.45;100906.22;5076733;27;69973;-37
2021/11/30 05:03:30;;;;;;;;;;;;;;;30.08;64.54;100914.53;5077891;27;65479;-35
2021/11/30 05:06:00;;;;;;;;;;;;;;;30.07;64.62;100913.69;5076690;27;70371;-35
2021/11/30 05:08:30;;;;;;;;;;;;;;;29.95;64.82;100888.34;5075976;27;65615;-35
2021/11/30 05:11:00;;;;;;;;;;;;;;;30.05;64.68;100896.84;5075808;27;70531;-35
2021/11/30 05:13:32;;;;;;;;;;;;;;;30.08;64.94;100877.47;5075485;27;66297;-35
2021/11/30 05:16:02;;;;;;;;;;;;;;;30.08;65.45;100869.34;5074549;27;69604;-36
2021/11/30 05:18:32;;;;;;;;;;;;;;;30.09;65.71;100862.91;5059409;28;65725;-35
2021/11/30 05:21:03;;;;;;;;;;;;;;;30.09;65.78;100860.22;5075678;27;69912;-36
2021/11/30 05:23:33;;;;;;;;;;;;;;;30.09;65.72;100849.38;5075678;27;66357;-35
2021/11/30 05:26:05;;;;;;;;;;;;;;;30.04;65.32;100844.63;5075903;27;70205;-35
2021/11/30 05:28:37;;;;;;;;;;;;;;;30.09;66.22;100846.69;5077015;27;65708;-35
2021/11/30 05:31:07;;;;;;;;;;;;;;;30.10;66.14;100848.34;5074699;27;70132;-36
2021/11/30 05:33:38;;;;;;;;;;;;;;;30.09;66.26;100835.00;5077519;27;65553;-35
2021/11/30 05:36:08;;;;;;;;;;;;;;;30.08;66.70;100828.78;5076459;27;69475;-35
2021/11/30 05:38:38;;;;;;;;;;;;;;;30.09;66.67;100822.34;5075171;27;66511;-35
2021/11/30 05:41:08;;;;;;;;;;;;;;;30.08;66.13;100820.66;5074217;27;69950;-36
2021/11/30 05:43:38;;;;;;;;;;;;;;;30.10;66.64;100825.88;5061778;27;65591;-35
2021/11/30 05:46:08;;;;;;;;;;;;;;;30.10;66.14;100818.56;5075254;27;70658;-35
2021/11/30 05:48:38;;;;;;;;;;;;;;;30.11;66.56;100809.41;5075015;27;66162;-35
2021/11/30 05:51:08;;;;;;;;;;;;;;;30.10;66.03;100804.22;5077095;27;71213;-35
2021/11/30 05:53:38;;;;;;;;;;;;;;;30.10;66.45;100805.06;5073989;27;66262;-34
2021/11/30 05:56:09;;;;;;;;;;;;;;;30.10;66.06;100805.06;5076391;27;69239;-34
2021/11/30 05:58:41;;;;;;;;;;;;;;;30.09;66.55;100795.28;5076206;27;65225;-35
2021/11/30 06:01:20;;;;;;;;;;;;;;;30.09;65.93;100786.31;5075226;27;69882;-36
2021/11/30 06:06:22;;;;;;;;;;;;;;;30.09;66.20;100775.50;5073993;27;70685;-35
2021/11/30 06:08:52;;;;;;;;;;;;;;;30.09;66.56;100762.84;5076281;27;66127;-35
2021/11/30 06:11:22;;;;;;;;;;;;;;;30.10;66.31;100756.34;5075557;27;70163;-35
2021/11/30 06:13:55;;;;;;;;;;;;;;;30.09;66.30;100754.72;5075065;27;67110;-35
2021/11/30 06:16:26;;;;;;;;;;;;;;;30.10;66.45;100750.13;5075397;27;69912;-34
2021/11/30 06:18:56;;;;;;;;;;;;;;;30.10;66.25;100745.53;5076600;27;66137;-35
2021/11/30 06:21:26;;;;;;;;;;;;;;;30.10;66.44;100745.53;5074392;27;69482;-36
2021/11/30 06:23:56;;;;;;;;;;;;;;;30.11;66.23;100735.53;5076394;27;66336;-36
2021/11/30 06:26:25;;;;;;;;;;;;;;;30.09;66.39;100733.06;5079900;27;70303;-36
2021/11/30 06:28:55;;;;;;;;;;;;;;;30.10;66.55;100729.31;5078326;27;67155;-36
2021/11/30 06:31:25;;;;;;;;;;;;;;;30.09;66.46;100733.06;5079650;27;70150;-36
2021/11/30 06:33:56;;;;;;;;;;;;;;;30.09;66.29;100732.22;5078646;27;66181;-35
2021/11/30 06:36:26;;;;;;;;;;;;;;;30.09;66.61;100727.66;5078294;27;69956;-35
2021/11/30 06:38:57;;;;;;;;;;;;;;;30.09;66.05;100724.97;5077362;27;66093;-35
2021/11/30 06:41:27;;;;;;;;;;;;;;;30.09;66.45;100716.84;5079041;27;69380;-35
2021/11/30 06:43:57;;;;;;;;;;;;;;;30.08;66.33;100709.75;5077885;27;66940;-35
2021/11/30 06:46:27;;;;;;;;;;;;;;;30.10;65.89;100704.13;5092253;27;69538;-36
2021/11/30 06:48:57;;;;;;;;;;;;;;;29.97;66.42;100680.72;5066613;27;66811;-35
2021/11/30 06:51:27;;;;;;;;;;;;;;;30.09;65.84;100684.38;5077497;27;70035;-34
2021/11/30 06:53:57;;;;;;;;;;;;;;;30.09;65.96;100678.97;5078680;27;66336;-35
2021/11/30 06:56:27;;;;;;;;;;;;;;;30.09;65.89;100668.16;5078796;27;70432;-35
2021/11/30 06:58:57;;;;;;;;;;;;;;;30.09;66.08;100662.75;5077715;27;65684;-35
2021/11/30 07:01:30;;;;;;;;;;;;;;;30.09;66.06;100673.56;5078861;27;69885;-36
2021/11/30 07:04:02;;;;;;;;;;;;;;;30.10;66.00;100666.28;5076730;27;66615;-35
2021/11/30 07:14:05;;;;;;;;;;;;;;;30.09;66.17;100657.34;5078384;27;66601;-35
2021/11/30 07:16:35;;;;;;;;;;;;;;;30.07;65.96;100645.91;5077698;27;70057;-36
2021/11/30 07:19:06;;;;;;;;;;;;;;;30.10;65.81;100650.88;5075544;27;67117;-36
2021/11/30 07:21:36;;;;;;;;;;;;;;;30.11;65.83;100647.09;5078514;27;69320;-36
2021/11/30 07:24:07;;;;;;;;;;;;;;;30.10;65.94;100645.44;5077846;27;66746;-36
2021/11/30 07:26:37;;;;;;;;;;;;;;;30.10;66.18;100647.34;5076755;27;69852;-36
2021/11/30 07:29:27;;;;;;;;;;;;;;;30.10;66.14;100648.16;5079128;27;65540;-35
2021/11/30 07:32:03;;;;;;;;;;;;;;;30.10;66.14;100642.75;5076126;27;70307;-35
2021/11/30 07:34:46;;;;;;;;;;;;;;;30.10;66.18;100648.16;5077681;27;66991;-35
2021/11/30 07:37:16;;;;;;;;;;;;;;;30.10;66.30;100652.75;5076126;27;69097;-35
2021/11/30 07:39:46;;;;;;;;;;;;;;;30.10;66.23;100661.69;5078666;27;66256;-35
2021/11/30 07:42:18;;;;;;;;;;;;;;;30.10;66.09;100653.56;5077697;27;69893;-35
2021/11/30 07:44:48;;;;;;;;;;;;;;;30.10;65.98;100658.97;5075333;27;66416;-33
2021/11/30 07:47:18;;;;;;;;;;;;;;;30.10;65.78;100658.16;5077216;27;70759;-36
2021/11/30 07:49:48;;;;;;;;;;;;;;;30.09;65.72;100657.34;5078666;27;66185;-34
2021/11/30 07:52:18;;;;;;;;;;;;;;;30.09;66.38;100651.94;5061852;28;70194;-35
2021/11/30 07:54:50;;;;;;;;;;;;;;;30.10;65.80;100658.97;5078621;28;65795;-35
2021/11/30 07:57:22;;;;;;;;;;;;;;;30.10;66.21;100668.97;5077599;27;70423;-34
2021/11/30 07:59:52;;;;;;;;;;;;;;;30.09;65.89;100668.16;5076581;27;66902;-35
2021/11/30 08:02:21;;;;;;;;;;;;;;;30.08;65.88;100666.47;5077009;27;69360;-36
2021/11/30 08:04:53;;;;;;;;;;;;;;;30.08;65.95;100677.28;5077168;27;66382;-36
2021/11/30 08:07:22;;;;;;;;;;;;;;;30.09;66.40;100684.38;5074733;27;70361;-36
2021/11/30 08:09:52;;;;;;;;;;;;;;;30.09;66.54;100687.09;5078015;27;66416;-35
2021/11/30 08:12:22;;;;;;;;;;;;;;;30.09;66.39;100688.94;5077450;27;69131;-36
2021/11/30 08:14:52;;;;;;;;;;;;;;;30.08;66.01;100698.94;5075167;27;66561;-35
2021/11/30 08:17:22;;;;;;;;;;;;;;;30.09;66.01;100700.63;5077259;27;68897;-35
2021/11/30 08:19:52;;;;;;;;;;;;;;;30.08;66.09;100698.13;5078011;27;66732;-34
2021/11/30 08:22:22;;;;;;;;;;;;;;;30.10;66.18;100707.66;5076351;27;70636;-36
2021/11/30 08:24:52;;;;;;;;;;;;;;;30.10;66.19;100717.66;5076303;27;66518;-34
2021/11/30 08:27:22;;;;;;;;;;;;;;;30.09;65.94;100716.84;5076104;27;69964;-36
2021/11/30 08:29:52;;;;;;;;;;;;;;;30.09;66.48;100714.13;5075201;27;65981;-35
2021/11/30 08:32:23;;;;;;;;;;;;;;;30.10;66.66;100713.09;5077853;27;70352;-35
2021/11/30 08:34:54;;;;;;;;;;;;;;;30.10;66.42;100717.66;5076860;27;67303;-35
2021/11/30 08:37:24;;;;;;;;;;;;;;;30.11;66.20;100719.31;5075600;27;69963;-35
2021/11/30 08:39:54;;;;;;;;;;;;;;;30.10;66.52;100721.19;5074122;27;65476;-35
2021/11/30 08:42:24;;;;;;;;;;;;;;;30.10;66.50;100732.00;5071627;27;70027;-35
2021/11/30 08:44:54;;;;;;;;;;;;;;;30.10;66.45;100734.72;5076223;27;67472;-35
2021/11/30 08:47:25;;;;;;;;;;;;;;;30.10;66.31;100729.31;5077140;27;70429;-35
2021/11/30 08:49:55;;;;;;;;;;;;;;;30.05;66.56;100726.44;5072535;27;65581;-35
2021/11/30 08:52:28;;;;;;;;;;;;;;;30.10;66.44;100732.00;5076962;27;70272;-36
2021/11/30 08:54:58;;;;;;;;;;;;;;;30.09;66.17;100733.06;5076057;27;67842;-36
2021/11/30 08:57:28;;;;;;;;;;;;;;;29.93;66.21;100703.84;5061681;27;70182;-36
2021/11/30 08:59:58;;;;;;;;;;;;;;;30.11;66.36;100730.13;5074623;27;65983;-36
2021/11/30 09:02:28;;;;;;;;;;;;;;;30.11;66.77;100740.94;5076124;27;70000;-36
2021/11/30 09:04:58;;;;;;;;;;;;;;;30.11;66.78;100741.78;5072214;27;66466;-35
2021/11/30 09:07:28;;;;;;;;;;;;;;;30.11;66.35;100735.53;5076331;27;69023;-35
2021/11/30 09:09:58;;;;;;;;;;;;;;;29.88;66.81;100700.97;5077463;27;66947;-35
2021/11/30 09:12:28;;;;;;;;;;;;;;;30.11;66.66;100739.06;5075325;27;69976;-35
2021/11/30 09:14:58;;;;;;;;;;;;;;;30.11;66.50;100730.97;5076474;27;65935;-35
2021/11/30 09:17:49;;;;;;;;;;;;;;;30.11;66.50;100735.53;5074985;27;70167;-35
2021/11/30 09:20:20;;;;;;;;;;;;;;;30.10;66.80;100729.31;5075425;27;66876;-35
2021/11/30 09:22:51;;;;;;;;;;;;;;;30.10;66.58;100734.72;5076921;27;69745;-35
2021/11/30 09:25:22;;;;;;;;;;;;;;;30.10;66.54;100733.91;5072407;27;66290;-35
2021/11/30 09:27:52;;;;;;;;;;;;;;;30.09;66.53;100737.63;5076347;27;69446;-35
2021/11/30 09:30:28;;;;;;;;;;;;;;;30.10;66.44;100739.31;5076220;27;66623;-35
2021/11/30 09:33:09;;;;;;;;;;;;;;;30.10;66.61;100742.00;5076442;27;69142;-35
2021/11/30 09:35:39;;;;;;;;;;;;;;;30.06;66.96;100741.59;5075843;27;66988;-35
2021/11/30 09:38:09;;;;;;;;;;;;;;;30.08;66.99;100742.22;5072617;27;69474;-35
2021/11/30 09:40:40;;;;;;;;;;;;;;;30.05;67.18;100745.38;5075638;27;66636;-35
2021/11/30 09:43:29;;;;;;;;;;;;;;;30.07;66.85;100751.38;5074049;27;70121;-35
2021/11/30 09:46:00;;;;;;;;;;;;;;;30.05;67.53;100756.19;5076293;27;66537;-36
2021/11/30 09:48:30;;;;;;;;;;;;;;;30.05;67.63;100764.28;5074226;27;69890;-34
2021/11/30 09:51:01;;;;;;;;;;;;;;;30.04;67.22;100768.06;5074175;27;66819;-36
2021/11/30 09:53:32;;;;;;;;;;;;;;;30.03;67.25;100771.78;5057219;27;69053;-36
2021/11/30 09:56:03;;;;;;;;;;;;;;;29.96;67.72;100762.91;5076147;27;66010;-36
2021/11/30 09:58:33;;;;;;;;;;;;;;;30.01;67.74;100769.31;5071499;27;70696;-35
2021/11/30 10:01:04;;;;;;;;;;;;;;;30.01;67.27;100782.03;5076175;27;66657;-35
2021/11/30 10:03:44;;;;;;;;;;;;;;;30.01;67.37;100779.31;5074951;27;69963;-35
2021/11/30 10:06:14;;;;;;;;;;;;;;;29.99;67.46;100776.81;5076121;27;66146;-35
2021/11/30 10:08:46;;;;;;;;;;;;;;;29.98;67.83;100779.75;5075019;27;70576;-35
2021/11/30 10:11:31;;;;;;;;;;;;;;;29.98;67.58;100791.41;5074796;27;67503;-35
2021/11/30 10:14:18;;;;;;;;;;;;;;;29.97;67.21;100792.41;5075421;27;70808;-35
2021/11/30 10:17:09;;;;;;;;;;;;;;;29.98;67.53;100796.81;5075247;27;66882;-35
2021/11/30 10:19:39;;;;;;;;;;;;;;;29.97;67.54;100805.13;5075051;27;70309;-35
2021/11/30 10:22:10;;;;;;;;;;;;;;;29.96;66.99;100808.88;5073440;27;66663;-35
2021/11/30 10:24:41;;;;;;;;;;;;;;;29.95;67.11;100802.66;5075719;27;69544;-35
2021/11/30 10:27:27;;;;;;;;;;;;;;;29.95;67.23;100807.19;5073713;27;67021;-35
2021/11/30 10:30:07;;;;;;;;;;;;;;;29.93;67.07;100814.72;5074829;27;70486;-35
2021/11/30 10:32:39;;;;;;;;;;;;;;;29.93;67.12;100826.38;5073595;27;65997;-35
2021/11/30 10:35:10;;;;;;;;;;;;;;;29.93;67.46;100836.34;5073314;27;70263;-35
2021/11/30 10:37:41;;;;;;;;;;;;;;;29.92;67.27;100840.94;5075054;27;66864;-35
2021/11/30 10:40:14;;;;;;;;;;;;;;;29.92;67.07;100842.78;5072824;27;69509;-35
2021/11/30 10:42:48;;;;;;;;;;;;;;;29.92;66.97;100848.19;5075756;27;66506;-35
2021/11/30 10:45:25;;;;;;;;;;;;;;;29.91;66.96;100847.38;5074775;27;70737;-35
2021/11/30 10:48:02;;;;;;;;;;;;;;;29.91;68.08;100854.66;5074065;28;65650;-35
2021/11/30 10:50:42;;;;;;;;;;;;;;;29.90;68.53;100858.44;5072913;27;69372;-34
2021/11/30 10:53:14;;;;;;;;;;;;;;;29.92;69.01;100861.72;5070968;27;67092;-34
2021/11/30 10:55:50;;;;;;;;;;;;;;;29.84;70.57;100855.53;5074944;27;69197;-34
2021/11/30 10:58:21;;;;;;;;;;;;;;;29.88;71.10;100871.31;5073813;27;65707;-34
2021/11/30 11:00:57;;;;;;;;;;;;;;;29.89;71.15;100872.97;5074908;27;69724;-36
2021/11/30 11:03:27;;;;;;;;;;;;;;;29.92;70.63;100877.94;5074971;27;66471;-35
2021/11/30 11:08:48;;;;;;;;;;;;;;;29.91;71.50;100892.53;5093092;27;66515;-35
2021/11/30 11:11:22;;;;;;;;;;;;;;;29.84;72.58;100893.38;5098448;27;69729;-35
2021/11/30 11:13:52;;;;;;;;;;;;;;;29.82;72.36;100900.03;5097645;27;65571;-34
2021/11/30 11:16:38;;;;;;;;;;;;;;;29.76;72.94;100901.72;5076085;27;69902;-35
2021/11/30 11:19:09;;;;;;;;;;;;;;;29.69;72.87;100898.19;5072472;28;66138;-34
2021/11/30 11:21:41;;;;;;;;;;;;;;;29.66;73.48;100900.50;5074946;27;69633;-34
2021/11/30 11:24:25;;;;;;;;;;;;;;;29.61;73.28;100901.94;5079974;28;66723;-35
2021/11/30 11:26:56;;;;;;;;;;;;;;;29.56;73.46;100899.03;5081112;27;69993;-36
2021/11/30 11:29:30;;;;;;;;;;;;;;;29.54;73.81;100909.22;5079656;28;67219;-36
2021/11/30 11:32:29;;;;;;;;;;;;;;;29.49;73.77;100908.19;5078483;28;69635;-35
2021/11/30 11:34:59;;;;;;;;;;;;;;;29.42;74.66;100910.06;5078592;28;67068;-35
2021/11/30 11:37:29;;;;;;;;;;;;;;;29.44;73.85;100908.00;5077617;28;69931;-34
2021/11/30 11:39:59;;;;;;;;;;;;;;;29.38;73.95;100915.88;5074955;27;66775;-35
2021/11/30 11:42:29;;;;;;;;;;;;;;;29.36;74.20;100918.00;5075974;28;70615;-35
2021/11/30 11:44:59;;;;;;;;;;;;;;;29.34;74.07;100930.06;5076111;28;66476;-34
2021/11/30 11:47:36;;;;;;;;;;;;;;;29.34;73.45;100930.88;5074461;28;70233;-34
2021/11/30 11:50:13;;;;;;;;;;;;;;;29.32;74.02;100938.34;5076983;28;66379;-35
2021/11/30 11:52:43;;;;;;;;;;;;;;;29.32;73.91;100943.75;5075538;28;69500;-35
2021/11/30 11:55:15;;;;;;;;;;;;;;;29.30;73.91;100951.22;5076119;27;66314;-36
2021/11/30 11:58:02;;;;;;;;;;;;;;;29.26;74.17;100952.69;5073018;28;70140;-35
2021/11/30 12:00:34;;;;;;;;;;;;;;;29.11;75.65;100954.75;5089527;27;66270;-35
2021/11/30 12:03:06;;;;;;;;;;;;;;;28.97;76.56;100951.19;5060827;28;70121;-36
2021/11/30 12:05:45;;;;;;;;;;;;;;;28.82;76.81;100959.47;5078162;27;67090;-35
2021/11/30 12:08:32;;;;;;;;;;;;;;;28.68;77.61;100963.19;5076309;27;69333;-35
2021/11/30 12:11:04;;;;;;;;;;;;;;;28.58;77.86;100960.84;5059084;27;66320;-36
2021/11/30 12:13:34;;;;;;;;;;;;;;;28.52;78.21;100965.19;5073029;27;70252;-36
2021/11/30 12:16:06;;;;;;;;;;;;;;;28.43;78.49;100957.50;5068887;27;66714;-35
2021/11/30 12:18:42;;;;;;;;;;;;;;;28.39;79.13;100959.72;5074092;27;70591;-36
2021/11/30 12:21:14;;;;;;;;;;;;;;;28.36;79.51;100965.53;5072006;27;66438;-36
2021/11/30 12:23:50;;;;;;;;;;;;;;;28.31;79.44;100978.78;5072988;27;69352;-37
2021/11/30 12:26:38;;;;;;;;;;;;;;;28.18;80.05;100959.84;5074186;27;66599;-36
2021/11/30 12:29:19;;;;;;;;;;;;;;;28.23;79.91;100976.25;5071087;27;69209;-35
2021/11/30 12:31:54;;;;;;;;;;;;;;;28.20;80.30;100971.28;5078188;27;66604;-35
2021/11/30 12:34:50;;;;;;;;;;;;;;;28.20;79.88;100979.38;5073996;27;70514;-35
2021/11/30 12:37:25;;;;;;;;;;;;;;;28.18;80.26;100989.50;5069545;27;64825;-36
2021/11/30 12:40:09;;;;;;;;;;;;;;;28.17;80.75;100987.84;5074471;27;70067;-35
2021/11/30 12:42:44;;;;;;;;;;;;;;;28.18;80.11;101001.13;5067285;27;66817;-35
2021/11/30 12:45:39;;;;;;;;;;;;;;;28.13;80.48;100992.78;5073195;27;69763;-36
2021/11/30 12:48:17;;;;;;;;;;;;;;;28.10;80.12;100997.75;5075013;27;67100;-36
2021/11/30 12:50:58;;;;;;;;;;;;;;;28.12;80.84;101001.09;5070296;27;70037;-36
2021/11/30 12:53:42;;;;;;;;;;;;;;;28.14;81.00;101007.09;5069958;27;66469;-36
2021/11/30 12:56:35;;;;;;;;;;;;;;;28.19;80.73;101004.66;5071198;27;69751;-35
2021/11/30 12:59:06;;;;;;;;;;;;;;;28.24;81.04;101002.19;5068391;27;66812;-36
2021/11/30 13:01:39;;;;;;;;;;;;;;;28.22;80.67;101009.63;5056124;28;69793;-36
2021/11/30 13:04:32;;;;;;;;;;;;;;;28.20;80.90;101009.03;5076495;27;67120;-36
2021/11/30 13:07:02;;;;;;;;;;;;;;;28.18;80.31;101016.47;5075308;27;70398;-36
2021/11/30 13:10:00;;;;;;;;;;;;;;;28.15;79.78;101022.28;5064232;27;66139;-36
2021/11/30 13:12:34;;;;;;;;;;;;;;;28.16;80.50;101023.94;5073923;28;69711;-36
2021/11/30 13:15:05;;;;;;;;;;;;;;;28.15;80.37;101027.66;5074723;27;66346;-37
2021/11/30 13:17:37;;;;;;;;;;;;;;;28.15;80.88;101023.09;5073477;27;69659;-36
2021/11/30 13:20:10;;;;;;;;;;;;;;;28.10;80.20;101012.06;5066859;27;66676;-39
2021/11/30 13:22:41;;;;;;;;;;;;;;;28.16;80.56;101019.38;5062111;27;68953;-36